This is the latest recevied weather packets stored in our database for station/object KA9CBS. If no packets are shown the sender has not sent any weather packets the latest 10 day(s).
| Time | Temp. | Humidity | Pressure | Rain* | Wind** | Luminosity | Snow |
|---|---|---|---|---|---|---|---|
| 1787742626 | 20.56° C | 87% | 1017.1 hPa | 0 mm | - | 0 W/m² | - |
| 1787742321 | 20.56° C | 88% | 1017.1 hPa | 0 mm | - | 0 W/m² | - |
| 1787742016 | 20.56° C | 86% | 1017.3 hPa | 0 mm | - | 0 W/m² | - |
| 1787741712 | 20.56° C | 88% | 1017.2 hPa | 0 mm | - | 0 W/m² | - |
| 1787741408 | 20.56° C | 87% | 1017.1 hPa | 0 mm | - | 0 W/m² | - |
| 1787741108 | 20.56° C | 87% | 1017 hPa | 0 mm | - | 0 W/m² | - |
| 1787740807 | 20.56° C | 87% | 1016.9 hPa | 0 mm | - | 0 W/m² | - |
| 1787740505 | 20.56° C | 87% | 1017.1 hPa | 0 mm | - | 0 W/m² | - |
| 1787740195 | 20.56° C | 87% | 1017.1 hPa | 0 mm | - | 0 W/m² | - |
| 1787739891 | 20.56° C | 86% | 1017.1 hPa | 0 mm | - | 0 W/m² | - |
| 1787739588 | 20.56° C | 85% | 1017.2 hPa | 0 mm | - | 0 W/m² | - |
| 1787739288 | 20.56° C | 85% | 1017.1 hPa | 0 mm | - | 0 W/m² | - |
| 1787738983 | 20.56° C | 85% | 1017.3 hPa | 0 mm | - | 0 W/m² | - |
| 1787738679 | 21.11° C | 86% | 1017.2 hPa | 0 mm | - | 0 W/m² | - |
| 1787738378 | 21.11° C | 86% | 1016.9 hPa | 0 mm | - | 0 W/m² | - |
| 1787738073 | 21.67° C | 85% | 1016.7 hPa | 0 mm | - | 0 W/m² | - |
| 1787737767 | 21.67° C | 84% | 1017 hPa | 0 mm | - | 0 W/m² | - |
| 1787737462 | 21.67° C | 80% | 1017.4 hPa | 0 mm | - | 0 W/m² | - |
| 1787737158 | 21.67° C | 79% | 1017.5 hPa | 0 mm | - | 0 W/m² | - |
| 1787736854 | 21.67° C | 79% | 1017.4 hPa | 0 mm | - | 0 W/m² | - |
| 1787736549 | 21.67° C | 79% | 1017.6 hPa | 0 mm | - | 0 W/m² | - |
| 1787736249 | 21.67° C | 79% | 1017.7 hPa | 0 mm | - | 0 W/m² | - |
| 1787735947 | 21.67° C | 79% | 1017.7 hPa | 0 mm | - | 0 W/m² | - |
| 1787735642 | 21.67° C | 79% | 1017.5 hPa | 0 mm | - | 0 W/m² | - |
| 1787735338 | 22.22° C | 79% | 1017.6 hPa | 0 mm | - | 0 W/m² | - |
* Rain latest hour (hover to see other rain measurements)
** Current wind speed in m/s (hover to see current wind gust speed)